KCVC

Covington Municipal Airport

Atlanta, Georgia, USA
METAR KCVC 141315Z AUTO 00000KT 7SM CLR 24/20 A3006 RMK AO2 PNO
Observed Flight Rules
Aug-14 @ 13:15 UTC (27 minutes ago) Visual Flight Rules
Visibility Clouds
7 miles
  • Clear skies
Temperatures Readings
Current 24°C / 75°F
Dewpoint 20°C / 68°F
Humidity 78%
Altimeter 30.06" Hg
Pressure 1018 hPa
Elevation 247
METAR KCVC 141315Z AUTO 00000KT 7SM CLR 24/20 A3006 RMK AO2 PNO
Observed Flight Rules
Aug-14 @ 13:15 UTC
(27 minutes ago)
VFR
Clouds
  • Clear skies
Temperature Dewpoint
24°C / 75°F 20°C / 68°F
Humidity Altimeter Pressure
78% 30.06" Hg 1018 hPa